sensor_id;sensor_type;location;lat;lon;timestamp;pressure;altitude;pressure_sealevel;temperature;humidity
24031;BME280;12240;51.142;22.486;2022-10-01T00:02:06;99229.72;;;10.26;100.00
24031;BME280;12240;51.142;22.486;2022-10-01T00:04:38;99195.59;;;10.04;100.00
24031;BME280;12240;51.142;22.486;2022-10-01T00:07:06;99241.19;;;10.27;100.00
24031;BME280;12240;51.142;22.486;2022-10-01T00:09:39;99177.41;;;10.00;100.00
24031;BME280;12240;51.142;22.486;2022-10-01T00:12:07;99225.22;;;10.27;100.00
24031;BME280;12240;51.142;22.486;2022-10-01T00:14:36;99235.41;;;10.31;100.00
24031;BME280;12240;51.142;22.486;2022-10-01T00:17:05;99230.41;;;10.28;100.00
24031;BME280;12240;51.142;22.486;2022-10-01T00:19:33;99234.88;;;10.28;100.00
24031;BME280;12240;51.142;22.486;2022-10-01T00:22:01;99146.34;;;9.65;100.00
24031;BME280;12240;51.142;22.486;2022-10-01T00:24:30;99216.78;;;9.96;100.00
24031;BME280;12240;51.142;22.486;2022-10-01T00:26:57;99235.53;;;9.95;100.00
24031;BME280;12240;51.142;22.486;2022-10-01T00:29:27;99246.25;;;10.03;100.00
24031;BME280;12240;51.142;22.486;2022-10-01T00:31:55;99241.25;;;10.00;100.00
24031;BME280;12240;51.142;22.486;2022-10-01T00:34:23;99249.06;;;10.01;100.00
24031;BME280;12240;51.142;22.486;2022-10-01T00:36:51;99249.91;;;10.02;100.00
24031;BME280;12240;51.142;22.486;2022-10-01T00:39:20;99243.06;;;9.99;100.00
24031;BME280;12240;51.142;22.486;2022-10-01T00:41:48;99193.38;;;9.65;100.00
24031;BME280;12240;51.142;22.486;2022-10-01T00:44:35;99204.25;;;9.71;100.00
24031;BME280;12240;51.142;22.486;2022-10-01T00:47:40;99260.31;;;9.95;100.00
24031;BME280;12240;51.142;22.486;2022-10-01T00:50:31;99254.84;;;9.97;100.00
24031;BME280;12240;51.142;22.486;2022-10-01T00:53:05;99251.13;;;9.90;100.00
24031;BME280;12240;51.142;22.486;2022-10-01T00:55:40;99250.59;;;9.86;100.00
24031;BME280;12240;51.142;22.486;2022-10-01T00:58:11;99254.00;;;9.96;100.00
24031;BME280;12240;51.142;22.486;2022-10-01T01:00:41;99248.00;;;9.94;100.00
24031;BME280;12240;51.142;22.486;2022-10-01T01:03:10;99252.50;;;9.94;100.00
24031;BME280;12240;51.142;22.486;2022-10-01T01:05:38;99245.88;;;9.98;100.00
24031;BME280;12240;51.142;22.486;2022-10-01T01:08:07;99238.34;;;9.93;100.00
24031;BME280;12240;51.142;22.486;2022-10-01T01:11:10;99258.34;;;9.97;100.00
24031;BME280;12240;51.142;22.486;2022-10-01T01:13:57;99256.97;;;9.93;100.00
24031;BME280;12240;51.142;22.486;2022-10-01T01:21:43;99177.72;;;9.44;100.00
24031;BME280;12240;51.142;22.486;2022-10-01T01:24:59;99260.56;;;10.02;100.00
24031;BME280;12240;51.142;22.486;2022-10-01T01:27:40;99268.69;;;10.00;100.00
24031;BME280;12240;51.142;22.486;2022-10-01T01:30:13;99202.69;;;9.69;100.00
24031;BME280;12240;51.142;22.486;2022-10-01T01:32:51;99215.03;;;9.70;100.00
24031;BME280;12240;51.142;22.486;2022-10-01T01:35:29;99257.50;;;9.97;100.00
24031;BME280;12240;51.142;22.486;2022-10-01T01:38:06;99199.63;;;9.73;100.00
24031;BME280;12240;51.142;22.486;2022-10-01T01:40:38;99243.53;;;9.95;100.00
24031;BME280;12240;51.142;22.486;2022-10-01T01:43:11;99202.31;;;9.64;100.00
24031;BME280;12240;51.142;22.486;2022-10-01T01:45:44;99209.88;;;9.68;100.00
24031;BME280;12240;51.142;22.486;2022-10-01T01:48:14;99247.03;;;9.95;100.00
24031;BME280;12240;51.142;22.486;2022-10-01T01:53:32;99231.13;;;9.86;100.00
24031;BME280;12240;51.142;22.486;2022-10-01T01:56:02;99232.88;;;9.95;100.00
24031;BME280;12240;51.142;22.486;2022-10-01T01:58:35;99205.91;;;9.72;100.00
24031;BME280;12240;51.142;22.486;2022-10-01T02:01:04;99236.59;;;10.02;100.00
24031;BME280;12240;51.142;22.486;2022-10-01T02:12:21;99253.69;;;9.99;100.00
24031;BME280;12240;51.142;22.486;2022-10-01T02:15:20;99265.88;;;10.02;100.00
24031;BME280;12240;51.142;22.486;2022-10-01T02:21:01;99251.03;;;9.99;100.00
24031;BME280;12240;51.142;22.486;2022-10-01T02:23:39;99258.19;;;9.99;100.00
24031;BME280;12240;51.142;22.486;2022-10-01T02:26:15;99254.63;;;9.90;100.00
24031;BME280;12240;51.142;22.486;2022-10-01T02:28:46;99248.31;;;9.91;100.00
24031;BME280;12240;51.142;22.486;2022-10-01T02:31:17;99249.31;;;9.90;100.00
24031;BME280;12240;51.142;22.486;2022-10-01T02:33:46;99217.91;;;9.76;100.00
24031;BME280;12240;51.142;22.486;2022-10-01T02:36:16;99244.69;;;9.92;100.00
24031;BME280;12240;51.142;22.486;2022-10-01T02:38:45;99252.72;;;10.00;100.00
24031;BME280;12240;51.142;22.486;2022-10-01T02:41:19;99236.28;;;9.87;100.00
24031;BME280;12240;51.142;22.486;2022-10-01T02:43:59;99260.16;;;9.97;100.00
24031;BME280;12240;51.142;22.486;2022-10-01T02:47:03;99260.88;;;9.99;100.00
24031;BME280;12240;51.142;22.486;2022-10-01T02:49:35;99210.78;;;9.77;100.00
24031;BME280;12240;51.142;22.486;2022-10-01T02:52:26;99234.31;;;9.89;100.00
24031;BME280;12240;51.142;22.486;2022-10-01T02:55:28;99249.06;;;10.01;100.00
24031;BME280;12240;51.142;22.486;2022-10-01T02:57:57;99249.75;;;10.03;100.00
24031;BME280;12240;51.142;22.486;2022-10-01T03:00:25;99241.78;;;10.03;100.00
24031;BME280;12240;51.142;22.486;2022-10-01T03:02:53;99231.97;;;10.04;100.00
24031;BME280;12240;51.142;22.486;2022-10-01T03:05:22;99196.28;;;9.89;100.00
24031;BME280;12240;51.142;22.486;2022-10-01T03:07:49;99230.94;;;10.14;100.00
24031;BME280;12240;51.142;22.486;2022-10-01T03:10:17;99208.72;;;10.06;100.00
24031;BME280;12240;51.142;22.486;2022-10-01T03:12:46;99218.00;;;10.19;100.00
24031;BME280;12240;51.142;22.486;2022-10-01T03:15:17;99165.69;;;9.93;100.00
24031;BME280;12240;51.142;22.486;2022-10-01T03:17:52;99237.06;;;10.32;100.00
24031;BME280;12240;51.142;22.486;2022-10-01T03:20:21;99179.09;;;10.01;100.00
24031;BME280;12240;51.142;22.486;2022-10-01T03:22:49;99219.66;;;10.38;100.00
24031;BME280;12240;51.142;22.486;2022-10-01T03:25:17;99207.63;;;10.34;100.00
24031;BME280;12240;51.142;22.486;2022-10-01T03:27:45;99186.25;;;10.18;100.00
24031;BME280;12240;51.142;22.486;2022-10-01T03:30:14;99214.34;;;10.38;100.00
24031;BME280;12240;51.142;22.486;2022-10-01T03:32:42;99157.75;;;10.10;100.00
24031;BME280;12240;51.142;22.486;2022-10-01T03:35:10;99224.59;;;10.50;100.00
24031;BME280;12240;51.142;22.486;2022-10-01T03:37:38;99224.13;;;10.37;100.00
24031;BME280;12240;51.142;22.486;2022-10-01T03:40:06;99224.94;;;10.12;100.00
24031;BME280;12240;51.142;22.486;2022-10-01T03:42:34;99226.28;;;10.34;100.00
24031;BME280;12240;51.142;22.486;2022-10-01T03:45:03;99207.16;;;10.13;100.00
24031;BME280;12240;51.142;22.486;2022-10-01T03:47:31;99237.25;;;10.13;100.00
24031;BME280;12240;51.142;22.486;2022-10-01T03:49:58;99226.91;;;10.28;100.00
24031;BME280;12240;51.142;22.486;2022-10-01T03:52:27;99235.06;;;10.09;100.00
24031;BME280;12240;51.142;22.486;2022-10-01T03:54:55;99228.44;;;10.13;100.00
24031;BME280;12240;51.142;22.486;2022-10-01T03:57:23;99222.66;;;10.17;100.00
24031;BME280;12240;51.142;22.486;2022-10-01T03:59:51;99228.19;;;10.24;100.00
24031;BME280;12240;51.142;22.486;2022-10-01T04:02:19;99219.84;;;10.19;100.00
24031;BME280;12240;51.142;22.486;2022-10-01T04:04:48;99184.47;;;9.91;100.00
24031;BME280;12240;51.142;22.486;2022-10-01T04:07:16;99220.94;;;10.34;100.00
24031;BME280;12240;51.142;22.486;2022-10-01T04:09:44;99046.50;;;9.10;100.00
24031;BME280;12240;51.142;22.486;2022-10-01T04:12:12;99224.09;;;10.12;100.00
24031;BME280;12240;51.142;22.486;2022-10-01T04:14:40;99227.44;;;10.14;100.00
24031;BME280;12240;51.142;22.486;2022-10-01T04:17:08;99233.44;;;10.16;100.00
24031;BME280;12240;51.142;22.486;2022-10-01T04:19:36;99223.13;;;10.13;100.00
24031;BME280;12240;51.142;22.486;2022-10-01T04:22:04;99220.91;;;10.08;100.00
24031;BME280;12240;51.142;22.486;2022-10-01T04:24:32;99238.16;;;10.22;100.00
24031;BME280;12240;51.142;22.486;2022-10-01T04:27:00;99248.63;;;10.23;100.00
24031;BME280;12240;51.142;22.486;2022-10-01T04:29:28;99250.31;;;10.24;100.00
24031;BME280;12240;51.142;22.486;2022-10-01T04:31:56;99253.81;;;10.25;100.00
24031;BME280;12240;51.142;22.486;2022-10-01T04:34:24;99237.41;;;10.12;100.00
24031;BME280;12240;51.142;22.486;2022-10-01T04:37:12;99211.69;;;9.85;100.00
24031;BME280;12240;51.142;22.486;2022-10-01T04:39:40;99211.38;;;9.88;100.00
24031;BME280;12240;51.142;22.486;2022-10-01T04:42:08;99251.75;;;10.19;100.00
24031;BME280;12240;51.142;22.486;2022-10-01T04:44:36;99251.28;;;10.23;100.00
24031;BME280;12240;51.142;22.486;2022-10-01T04:47:05;99208.78;;;9.96;100.00
24031;BME280;12240;51.142;22.486;2022-10-01T04:49:33;99173.03;;;9.73;100.00
24031;BME280;12240;51.142;22.486;2022-10-01T04:52:02;99208.19;;;10.02;100.00
24031;BME280;12240;51.142;22.486;2022-10-01T04:54:30;99253.81;;;10.25;100.00
24031;BME280;12240;51.142;22.486;2022-10-01T04:56:58;99249.78;;;10.21;100.00
24031;BME280;12240;51.142;22.486;2022-10-01T04:59:27;99254.59;;;10.17;100.00
24031;BME280;12240;51.142;22.486;2022-10-01T05:01:55;99249.78;;;10.21;100.00
24031;BME280;12240;51.142;22.486;2022-10-01T05:04:23;99204.38;;;9.87;100.00
24031;BME280;12240;51.142;22.486;2022-10-01T05:06:51;99260.28;;;10.22;100.00
24031;BME280;12240;51.142;22.486;2022-10-01T05:09:19;99260.97;;;10.24;100.00
24031;BME280;12240;51.142;22.486;2022-10-01T05:11:47;99257.63;;;10.22;100.00
24031;BME280;12240;51.142;22.486;2022-10-01T05:14:19;99254.63;;;10.25;100.00
24031;BME280;12240;51.142;22.486;2022-10-01T05:16:47;99258.38;;;10.32;100.00
24031;BME280;12240;51.142;22.486;2022-10-01T05:19:15;99244.53;;;10.29;100.00
24031;BME280;12240;51.142;22.486;2022-10-01T05:21:44;99196.66;;;10.11;100.00
24031;BME280;12240;51.142;22.486;2022-10-01T05:24:12;99190.03;;;10.15;100.00
24031;BME280;12240;51.142;22.486;2022-10-01T05:26:41;99242.00;;;10.45;100.00
24031;BME280;12240;51.142;22.486;2022-10-01T05:29:10;99203.78;;;10.28;100.00
24031;BME280;12240;51.142;22.486;2022-10-01T05:31:38;99235.59;;;10.55;100.00
24031;BME280;12240;51.142;22.486;2022-10-01T05:34:12;99226.44;;;10.58;100.00
24031;BME280;12240;51.142;22.486;2022-10-01T05:36:40;99191.16;;;10.30;100.00
24031;BME280;12240;51.142;22.486;2022-10-01T05:39:09;99156.09;;;10.09;100.00
24031;BME280;12240;51.142;22.486;2022-10-01T05:41:37;99240.97;;;10.64;100.00
24031;BME280;12240;51.142;22.486;2022-10-01T05:44:07;99207.19;;;10.38;100.00
24031;BME280;12240;51.142;22.486;2022-10-01T05:46:35;99242.03;;;10.71;100.00
24031;BME280;12240;51.142;22.486;2022-10-01T05:49:03;99252.00;;;10.69;100.00
24031;BME280;12240;51.142;22.486;2022-10-01T05:51:33;99251.47;;;10.65;100.00
24031;BME280;12240;51.142;22.486;2022-10-01T05:54:03;99245.38;;;10.73;100.00
24031;BME280;12240;51.142;22.486;2022-10-01T05:56:31;99246.72;;;10.77;100.00
24031;BME280;12240;51.142;22.486;2022-10-01T05:58:59;99254.41;;;10.80;100.00
24031;BME280;12240;51.142;22.486;2022-10-01T06:01:27;99253.41;;;10.81;100.00
24031;BME280;12240;51.142;22.486;2022-10-01T06:03:56;99240.41;;;10.78;100.00
24031;BME280;12240;51.142;22.486;2022-10-01T06:06:25;99249.47;;;10.93;100.00
24031;BME280;12240;51.142;22.486;2022-10-01T06:08:54;99244.97;;;10.85;100.00
24031;BME280;12240;51.142;22.486;2022-10-01T06:11:22;99242.22;;;11.03;100.00
24031;BME280;12240;51.142;22.486;2022-10-01T06:13:51;99226.72;;;10.98;100.00
24031;BME280;12240;51.142;22.486;2022-10-01T06:16:20;99170.47;;;10.76;100.00
24031;BME280;12240;51.142;22.486;2022-10-01T06:18:48;99208.22;;;10.97;100.00
24031;BME280;12240;51.142;22.486;2022-10-01T06:21:16;99243.59;;;11.15;100.00
24031;BME280;12240;51.142;22.486;2022-10-01T06:23:44;99245.47;;;11.14;100.00
24031;BME280;12240;51.142;22.486;2022-10-01T06:26:13;99199.19;;;10.90;100.00
24031;BME280;12240;51.142;22.486;2022-10-01T06:28:41;99250.97;;;11.21;100.00
24031;BME280;12240;51.142;22.486;2022-10-01T06:31:10;99205.22;;;11.00;100.00
24031;BME280;12240;51.142;22.486;2022-10-01T06:33:38;99261.69;;;11.37;100.00
24031;BME280;12240;51.142;22.486;2022-10-01T06:36:06;99262.53;;;11.37;100.00
24031;BME280;12240;51.142;22.486;2022-10-01T06:38:34;99259.44;;;11.50;100.00
24031;BME280;12240;51.142;22.486;2022-10-01T06:41:03;99269.09;;;11.51;100.00
24031;BME280;12240;51.142;22.486;2022-10-01T06:43:32;99269.41;;;11.48;100.00
24031;BME280;12240;51.142;22.486;2022-10-01T06:46:02;99227.00;;;11.29;100.00
24031;BME280;12240;51.142;22.486;2022-10-01T06:48:32;99256.44;;;11.53;100.00
24031;BME280;12240;51.142;22.486;2022-10-01T06:51:02;99253.78;;;11.61;100.00
24031;BME280;12240;51.142;22.486;2022-10-01T06:53:31;99225.75;;;11.49;100.00
24031;BME280;12240;51.142;22.486;2022-10-01T06:56:04;99208.59;;;11.43;100.00
24031;BME280;12240;51.142;22.486;2022-10-01T06:58:34;99255.88;;;11.75;100.00
24031;BME280;12240;51.142;22.486;2022-10-01T07:01:02;99231.53;;;11.70;100.00
24031;BME280;12240;51.142;22.486;2022-10-01T07:03:30;99258.25;;;11.86;100.00
24031;BME280;12240;51.142;22.486;2022-10-01T07:06:03;99212.63;;;11.63;100.00
24031;BME280;12240;51.142;22.486;2022-10-01T07:08:32;99250.75;;;11.98;100.00
24031;BME280;12240;51.142;22.486;2022-10-01T07:11:02;99205.00;;;11.68;100.00
24031;BME280;12240;51.142;22.486;2022-10-01T07:13:30;99216.88;;;11.74;100.00
24031;BME280;12240;51.142;22.486;2022-10-01T07:16:01;99228.72;;;11.80;100.00
24031;BME280;12240;51.142;22.486;2022-10-01T07:18:30;99195.44;;;11.58;100.00
24031;BME280;12240;51.142;22.486;2022-10-01T07:20:58;99201.28;;;11.61;100.00
24031;BME280;12240;51.142;22.486;2022-10-01T07:23:27;99186.09;;;11.46;100.00
24031;BME280;12240;51.142;22.486;2022-10-01T07:25:55;99236.53;;;11.73;100.00
24031;BME280;12240;51.142;22.486;2022-10-01T07:28:23;99234.19;;;11.78;100.00
24031;BME280;12240;51.142;22.486;2022-10-01T07:31:04;99234.88;;;11.80;100.00
24031;BME280;12240;51.142;22.486;2022-10-01T07:33:38;99187.44;;;11.50;100.00
24031;BME280;12240;51.142;22.486;2022-10-01T07:36:09;99232.03;;;11.82;100.00
24031;BME280;12240;51.142;22.486;2022-10-01T07:38:38;99234.69;;;11.82;100.00
24031;BME280;12240;51.142;22.486;2022-10-01T07:41:08;99226.75;;;11.90;100.00
24031;BME280;12240;51.142;22.486;2022-10-01T07:43:36;99173.84;;;11.77;100.00
24031;BME280;12240;51.142;22.486;2022-10-01T07:46:06;99213.75;;;12.11;100.00
24031;BME280;12240;51.142;22.486;2022-10-01T07:48:34;99180.88;;;11.86;100.00
24031;BME280;12240;51.142;22.486;2022-10-01T07:51:03;99070.94;;;11.26;100.00
24031;BME280;12240;51.142;22.486;2022-10-01T07:53:31;99198.75;;;12.26;100.00
24031;BME280;12240;51.142;22.486;2022-10-01T07:56:00;99178.22;;;12.34;100.00
24031;BME280;12240;51.142;22.486;2022-10-01T07:58:29;99142.16;;;12.30;100.00
24031;BME280;12240;51.142;22.486;2022-10-01T08:00:57;99175.84;;;12.63;100.00
24031;BME280;12240;51.142;22.486;2022-10-01T08:03:29;99146.13;;;12.50;100.00
24031;BME280;12240;51.142;22.486;2022-10-01T08:05:57;99196.31;;;12.87;100.00
24031;BME280;12240;51.142;22.486;2022-10-01T08:08:26;99190.72;;;13.13;100.00
24031;BME280;12240;51.142;22.486;2022-10-01T08:10:54;99197.06;;;13.20;100.00
24031;BME280;12240;51.142;22.486;2022-10-01T08:13:22;99191.34;;;13.23;100.00
24031;BME280;12240;51.142;22.486;2022-10-01T08:15:53;99184.63;;;13.35;100.00
24031;BME280;12240;51.142;22.486;2022-10-01T08:18:22;99185.16;;;13.30;100.00
24031;BME280;12240;51.142;22.486;2022-10-01T08:20:50;99145.34;;;12.88;100.00
24031;BME280;12240;51.142;22.486;2022-10-01T08:23:19;99157.03;;;12.96;100.00
24031;BME280;12240;51.142;22.486;2022-10-01T08:25:49;99188.25;;;13.11;100.00
24031;BME280;12240;51.142;22.486;2022-10-01T08:28:17;99175.91;;;13.10;100.00
24031;BME280;12240;51.142;22.486;2022-10-01T08:30:45;99134.03;;;12.78;100.00
24031;BME280;12240;51.142;22.486;2022-10-01T08:33:13;99162.91;;;12.83;100.00
24031;BME280;12240;51.142;22.486;2022-10-01T08:35:42;99174.41;;;13.00;100.00
24031;BME280;12240;51.142;22.486;2022-10-01T08:38:11;99181.72;;;13.14;100.00
24031;BME280;12240;51.142;22.486;2022-10-01T08:40:49;99177.00;;;13.24;100.00
24031;BME280;12240;51.142;22.486;2022-10-01T08:43:36;99173.19;;;13.18;100.00
24031;BME280;12240;51.142;22.486;2022-10-01T08:46:24;99136.59;;;13.19;100.00
24031;BME280;12240;51.142;22.486;2022-10-01T08:49:19;99159.88;;;13.41;100.00
24031;BME280;12240;51.142;22.486;2022-10-01T08:52:20;99162.59;;;13.63;100.00
24031;BME280;12240;51.142;22.486;2022-10-01T08:55:01;99152.31;;;13.44;100.00
24031;BME280;12240;51.142;22.486;2022-10-01T08:57:47;99107.59;;;13.30;100.00
24031;BME280;12240;51.142;22.486;2022-10-01T09:00:19;99147.09;;;13.51;100.00
24031;BME280;12240;51.142;22.486;2022-10-01T09:02:48;99147.00;;;13.67;100.00
24031;BME280;12240;51.142;22.486;2022-10-01T09:17:22;99150.69;;;14.11;100.00
24031;BME280;12240;51.142;22.486;2022-10-01T09:20:25;99143.03;;;14.23;100.00
24031;BME280;12240;51.142;22.486;2022-10-01T09:25:49;99136.75;;;14.67;100.00
24031;BME280;12240;51.142;22.486;2022-10-01T09:31:27;99137.16;;;14.79;100.00
24031;BME280;12240;51.142;22.486;2022-10-01T09:34:18;99109.25;;;14.73;100.00
24031;BME280;12240;51.142;22.486;2022-10-01T09:37:06;99104.28;;;15.20;100.00
24031;BME280;12240;51.142;22.486;2022-10-01T09:42:33;99134.63;;;14.77;100.00
24031;BME280;12240;51.142;22.486;2022-10-01T09:45:01;99119.59;;;14.62;100.00
24031;BME280;12240;51.142;22.486;2022-10-01T09:47:32;99129.94;;;14.65;100.00
24031;BME280;12240;51.142;22.486;2022-10-01T09:50:04;99121.91;;;14.65;100.00
24031;BME280;12240;51.142;22.486;2022-10-01T09:52:36;99117.00;;;14.68;100.00
24031;BME280;12240;51.142;22.486;2022-10-01T09:55:39;99114.78;;;14.43;100.00
24031;BME280;12240;51.142;22.486;2022-10-01T09:58:16;99104.22;;;14.41;100.00
24031;BME280;12240;51.142;22.486;2022-10-01T10:00:45;99106.84;;;14.49;100.00
24031;BME280;12240;51.142;22.486;2022-10-01T10:03:24;99109.88;;;14.46;100.00
24031;BME280;12240;51.142;22.486;2022-10-01T10:05:54;99104.13;;;14.64;100.00
24031;BME280;12240;51.142;22.486;2022-10-01T10:08:30;99093.16;;;14.73;100.00
24031;BME280;12240;51.142;22.486;2022-10-01T10:11:04;99096.66;;;14.88;100.00
24031;BME280;12240;51.142;22.486;2022-10-01T10:13:40;99096.22;;;15.20;100.00
24031;BME280;12240;51.142;22.486;2022-10-01T10:19:21;99091.31;;;15.24;100.00
24031;BME280;12240;51.142;22.486;2022-10-01T10:21:56;99078.53;;;14.90;100.00
24031;BME280;12240;51.142;22.486;2022-10-01T10:24:33;99040.88;;;14.98;100.00
24031;BME280;12240;51.142;22.486;2022-10-01T10:27:05;99071.75;;;15.45;100.00
24031;BME280;12240;51.142;22.486;2022-10-01T10:29:38;99027.69;;;15.54;100.00
24031;BME280;12240;51.142;22.486;2022-10-01T10:32:18;99061.03;;;16.08;100.00
24031;BME280;12240;51.142;22.486;2022-10-01T10:34:52;99053.53;;;16.03;100.00
24031;BME280;12240;51.142;22.486;2022-10-01T10:37:33;99046.31;;;16.59;100.00
24031;BME280;12240;51.142;22.486;2022-10-01T10:40:04;99040.28;;;16.57;100.00
24031;BME280;12240;51.142;22.486;2022-10-01T10:42:35;99027.75;;;16.71;100.00
24031;BME280;12240;51.142;22.486;2022-10-01T10:45:18;99023.25;;;16.84;100.00
24031;BME280;12240;51.142;22.486;2022-10-01T10:47:50;99029.50;;;16.91;100.00
24031;BME280;12240;51.142;22.486;2022-10-01T10:50:39;99029.38;;;17.25;100.00
24031;BME280;12240;51.142;22.486;2022-10-01T10:53:22;98901.81;;;16.27;100.00
24031;BME280;12240;51.142;22.486;2022-10-01T10:56:01;98971.34;;;16.43;100.00
24031;BME280;12240;51.142;22.486;2022-10-01T10:58:35;98985.19;;;16.40;100.00
24031;BME280;12240;51.142;22.486;2022-10-01T11:01:12;99004.72;;;16.55;100.00
24031;BME280;12240;51.142;22.486;2022-10-01T11:03:47;98991.44;;;16.47;100.00
24031;BME280;12240;51.142;22.486;2022-10-01T11:06:16;98964.69;;;16.39;100.00
24031;BME280;12240;51.142;22.486;2022-10-01T11:08:48;98984.81;;;16.90;100.00
24031;BME280;12240;51.142;22.486;2022-10-01T11:11:51;98972.22;;;17.10;100.00
24031;BME280;12240;51.142;22.486;2022-10-01T11:14:53;98964.84;;;17.38;100.00
24031;BME280;12240;51.142;22.486;2022-10-01T11:18:00;98957.63;;;17.52;100.00
24031;BME280;12240;51.142;22.486;2022-10-01T11:35:20;98957.53;;;17.06;100.00
24031;BME280;12240;51.142;22.486;2022-10-01T11:38:27;98950.50;;;17.12;100.00
24031;BME280;12240;51.142;22.486;2022-10-01T11:49:49;98930.13;;;16.70;100.00
24031;BME280;12240;51.142;22.486;2022-10-01T11:52:51;98924.81;;;17.03;100.00
24031;BME280;12240;51.142;22.486;2022-10-01T11:55:32;98906.19;;;16.95;100.00
24031;BME280;12240;51.142;22.486;2022-10-01T11:58:47;98900.41;;;16.91;100.00
24031;BME280;12240;51.142;22.486;2022-10-01T12:06:43;98881.34;;;16.73;100.00
24031;BME280;12240;51.142;22.486;2022-10-01T12:09:52;98879.50;;;16.93;100.00
24031;BME280;12240;51.142;22.486;2022-10-01T12:12:33;98889.00;;;16.96;100.00
24031;BME280;12240;51.142;22.486;2022-10-01T12:15:19;98893.81;;;17.07;100.00
24031;BME280;12240;51.142;22.486;2022-10-01T12:18:04;98889.84;;;16.96;100.00
24031;BME280;12240;51.142;22.486;2022-10-01T12:20:49;98867.31;;;17.17;100.00
24031;BME280;12240;51.142;22.486;2022-10-01T12:23:26;98869.19;;;17.29;100.00
24031;BME280;12240;51.142;22.486;2022-10-01T12:44:28;98835.00;;;17.69;100.00
24031;BME280;12240;51.142;22.486;2022-10-01T12:53:05;98786.09;;;17.79;100.00
24031;BME280;12240;51.142;22.486;2022-10-01T12:56:08;98816.19;;;18.20;100.00
24031;BME280;12240;51.142;22.486;2022-10-01T12:59:18;98808.13;;;17.50;100.00
24031;BME280;12240;51.142;22.486;2022-10-01T13:13:36;98797.38;;;16.65;100.00
24031;BME280;12240;51.142;22.486;2022-10-01T13:16:36;98790.53;;;16.62;100.00
24031;BME280;12240;51.142;22.486;2022-10-01T13:30:25;98769.22;;;16.80;100.00
24031;BME280;12240;51.142;22.486;2022-10-01T13:32:59;98768.63;;;16.98;100.00
24031;BME280;12240;51.142;22.486;2022-10-01T13:35:37;98766.16;;;17.09;100.00
24031;BME280;12240;51.142;22.486;2022-10-01T13:38:27;98738.22;;;16.97;100.00
24031;BME280;12240;51.142;22.486;2022-10-01T13:41:06;98763.44;;;16.96;100.00
24031;BME280;12240;51.142;22.486;2022-10-01T13:43:54;98756.81;;;16.92;100.00
24031;BME280;12240;51.142;22.486;2022-10-01T13:46:30;98748.56;;;16.68;100.00
24031;BME280;12240;51.142;22.486;2022-10-01T13:49:15;98754.53;;;16.57;100.00
24031;BME280;12240;51.142;22.486;2022-10-01T13:51:46;98738.63;;;16.49;100.00
24031;BME280;12240;51.142;22.486;2022-10-01T13:54:46;98754.34;;;16.58;100.00
24031;BME280;12240;51.142;22.486;2022-10-01T13:57:33;98757.66;;;16.67;100.00
24031;BME280;12240;51.142;22.486;2022-10-01T14:02:44;98739.25;;;16.83;100.00
24031;BME280;12240;51.142;22.486;2022-10-01T14:08:39;98717.53;;;16.65;100.00
24031;BME280;12240;51.142;22.486;2022-10-01T14:11:13;98711.31;;;16.39;100.00
24031;BME280;12240;51.142;22.486;2022-10-01T14:14:12;98705.75;;;16.53;100.00
24031;BME280;12240;51.142;22.486;2022-10-01T14:17:05;98697.25;;;16.37;100.00
24031;BME280;12240;51.142;22.486;2022-10-01T14:19:34;98691.44;;;16.40;100.00
24031;BME280;12240;51.142;22.486;2022-10-01T14:31:09;98718.09;;;16.41;100.00
24031;BME280;12240;51.142;22.486;2022-10-01T14:37:13;98695.97;;;16.19;100.00
24031;BME280;12240;51.142;22.486;2022-10-01T14:39:44;98678.78;;;15.94;100.00
24031;BME280;12240;51.142;22.486;2022-10-01T14:42:16;98660.38;;;15.91;100.00
24031;BME280;12240;51.142;22.486;2022-10-01T14:44:45;98648.78;;;15.78;100.00
24031;BME280;12240;51.142;22.486;2022-10-01T14:47:22;98689.91;;;15.85;100.00
24031;BME280;12240;51.142;22.486;2022-10-01T14:49:51;98692.59;;;15.85;100.00
24031;BME280;12240;51.142;22.486;2022-10-01T14:52:28;98687.63;;;15.82;100.00
24031;BME280;12240;51.142;22.486;2022-10-01T14:55:05;98647.50;;;15.61;100.00
24031;BME280;12240;51.142;22.486;2022-10-01T14:57:47;98684.09;;;15.68;100.00
24031;BME280;12240;51.142;22.486;2022-10-01T15:00:20;98685.53;;;15.71;100.00
24031;BME280;12240;51.142;22.486;2022-10-01T15:03:10;98682.19;;;15.62;100.00
24031;BME280;12240;51.142;22.486;2022-10-01T15:05:41;98679.25;;;15.51;100.00
24031;BME280;12240;51.142;22.486;2022-10-01T15:08:37;98670.75;;;15.41;100.00
24031;BME280;12240;51.142;22.486;2022-10-01T15:11:28;98677.38;;;15.45;100.00
24031;BME280;12240;51.142;22.486;2022-10-01T15:14:06;98667.03;;;15.42;100.00
24031;BME280;12240;51.142;22.486;2022-10-01T15:16:37;98660.16;;;15.33;100.00
24031;BME280;12240;51.142;22.486;2022-10-01T15:19:08;98668.41;;;15.31;100.00
24031;BME280;12240;51.142;22.486;2022-10-01T15:21:54;98618.13;;;14.99;100.00
24031;BME280;12240;51.142;22.486;2022-10-01T15:24:44;98657.22;;;15.21;100.00
24031;BME280;12240;51.142;22.486;2022-10-01T15:27:16;98664.28;;;15.29;100.00
24031;BME280;12240;51.142;22.486;2022-10-01T15:29:52;98620.38;;;14.95;100.00
24031;BME280;12240;51.142;22.486;2022-10-01T15:32:25;98612.75;;;14.92;100.00
24031;BME280;12240;51.142;22.486;2022-10-01T15:34:58;98628.66;;;15.00;100.00
24031;BME280;12240;51.142;22.486;2022-10-01T15:37:34;98641.69;;;15.10;100.00